createdAt,value
2023-05-14T00:00:06.753Z,6.27
2023-05-14T00:00:52.689Z,6.26
2023-05-14T00:01:34.911Z,6.24
2023-05-14T00:02:08.138Z,6.24
2023-05-14T00:02:41.692Z,6.22
2023-05-14T00:03:15.055Z,6.23
2023-05-14T00:03:48.445Z,6.22
2023-05-14T00:04:23.721Z,6.21
2023-05-14T00:04:56.921Z,6.21
2023-05-14T00:05:30.058Z,6.19
2023-05-14T00:06:03.414Z,6.18
2023-05-14T00:06:36.706Z,6.17
2023-05-14T00:07:09.964Z,6.17
2023-05-14T00:07:43.181Z,6.15
2023-05-14T00:08:16.317Z,6.14
2023-05-14T00:08:49.420Z,6.12
2023-05-14T00:09:22.575Z,6.11
2023-05-14T00:09:55.694Z,6.10
2023-05-14T00:10:28.792Z,6.09
2023-05-14T00:11:03.660Z,6.08
2023-05-14T00:11:40.246Z,6.07
2023-05-14T00:12:14.818Z,6.04
2023-05-14T00:12:48.234Z,6.03
2023-05-14T00:13:21.504Z,6.01
2023-05-14T00:13:54.607Z,6.00
2023-05-14T00:14:27.904Z,5.99
2023-05-14T00:15:01.301Z,5.97
2023-05-14T00:15:34.779Z,5.93
2023-05-14T00:16:08.114Z,5.94
2023-05-14T00:16:41.312Z,5.93
2023-05-14T00:17:14.419Z,5.91
2023-05-14T00:17:47.585Z,5.89
2023-05-14T00:18:20.815Z,5.89
2023-05-14T00:18:54.024Z,5.87
2023-05-14T00:19:27.573Z,5.85
2023-05-14T00:20:00.738Z,5.85
2023-05-14T00:20:34.021Z,5.83
2023-05-14T00:21:07.249Z,5.82
2023-05-14T00:21:40.348Z,5.81
2023-05-14T00:22:13.518Z,5.81
2023-05-14T00:22:46.680Z,5.79
2023-05-14T00:23:19.804Z,5.78
2023-05-14T00:23:52.956Z,5.77
2023-05-14T00:24:26.361Z,5.72
2023-05-14T00:24:59.501Z,5.74
2023-05-14T00:25:32.681Z,5.73
2023-05-14T00:26:05.983Z,5.72
2023-05-14T00:26:39.221Z,5.70
2023-05-14T00:27:12.313Z,5.69
2023-05-14T00:27:46.421Z,5.67
2023-05-14T00:28:19.579Z,5.66
2023-05-14T00:28:52.693Z,5.64
2023-05-14T00:29:25.864Z,5.62
2023-05-14T00:30:00.181Z,5.61
2023-05-14T00:30:33.414Z,5.60
2023-05-14T00:31:06.653Z,5.59
2023-05-14T00:31:39.927Z,5.60
2023-05-14T00:32:13.466Z,5.59
2023-05-14T00:32:46.927Z,5.59
2023-05-14T00:33:20.062Z,5.59
2023-05-14T00:33:53.192Z,5.59
2023-05-14T00:34:26.341Z,5.58
2023-05-14T00:34:59.868Z,5.58
2023-05-14T00:35:35.516Z,5.59
2023-05-14T00:36:08.713Z,5.58
2023-05-14T00:36:41.871Z,5.59
2023-05-14T00:37:14.997Z,5.58
2023-05-14T00:37:48.187Z,5.58
2023-05-14T00:38:21.436Z,5.56
2023-05-14T00:38:54.744Z,5.59
2023-05-14T00:39:28.299Z,5.59
2023-05-14T00:40:01.676Z,5.60
2023-05-14T00:40:35.087Z,5.61
2023-05-14T00:41:08.351Z,5.62
2023-05-14T00:41:41.558Z,5.62
2023-05-14T00:42:14.796Z,5.63
2023-05-14T00:42:47.958Z,5.63
2023-05-14T00:43:21.926Z,5.63
2023-05-14T00:43:55.467Z,5.63
2023-05-14T00:44:31.664Z,5.64
2023-05-14T00:45:05.461Z,5.65
2023-05-14T00:45:39.229Z,5.64
2023-05-14T00:46:12.731Z,5.65
2023-05-14T00:46:46.014Z,5.65
2023-05-14T00:47:19.462Z,5.65
2023-05-14T00:47:53.787Z,5.66
2023-05-14T00:48:27.114Z,5.66
2023-05-14T00:49:00.327Z,5.65
2023-05-14T00:49:34.492Z,5.64
2023-05-14T00:50:08.284Z,5.65
2023-05-14T00:50:41.789Z,5.64
2023-05-14T00:51:16.011Z,5.65
2023-05-14T00:51:49.149Z,5.65
2023-05-14T00:52:22.539Z,5.64
2023-05-14T00:52:55.812Z,5.65
2023-05-14T00:53:29.295Z,5.64
2023-05-14T00:54:02.774Z,5.64
2023-05-14T00:54:36.747Z,5.63
2023-05-14T00:55:12.158Z,5.62
2023-05-14T00:55:45.716Z,5.62
2023-05-14T00:56:19.352Z,5.62
2023-05-14T00:56:53.139Z,5.62
2023-05-14T00:57:26.502Z,5.62
2023-05-14T00:58:00.057Z,5.61
2023-05-14T00:58:33.224Z,5.61
2023-05-14T00:59:06.365Z,5.60
2023-05-14T00:59:42.782Z,5.59
2023-05-14T01:00:16.811Z,5.59
2023-05-14T01:00:50.110Z,5.57
2023-05-14T01:01:23.571Z,5.57
2023-05-14T01:01:56.737Z,5.55
2023-05-14T01:02:29.896Z,5.54
2023-05-14T01:03:07.805Z,5.52
2023-05-14T01:03:41.738Z,5.50
2023-05-14T01:04:14.914Z,5.48
2023-05-14T01:04:48.079Z,5.47
2023-05-14T01:05:23.018Z,5.42
2023-05-14T01:06:04.589Z,5.43
2023-05-14T01:06:45.326Z,5.42
2023-05-14T01:07:28.526Z,5.39
2023-05-14T01:08:09.705Z,5.38
2023-05-14T01:09:01.529Z,5.36
2023-05-14T01:09:50.392Z,5.33
2023-05-14T01:10:32.928Z,5.33
2023-05-14T01:11:18.160Z,5.33
2023-05-14T01:12:10.281Z,5.32
2023-05-14T01:13:00.633Z,5.31
2023-05-14T01:13:37.745Z,5.30
2023-05-14T01:14:33.245Z,5.29
2023-05-14T01:15:16.779Z,5.27
2023-05-14T01:15:49.976Z,5.27
2023-05-14T01:16:27.088Z,5.26
2023-05-14T01:17:02.951Z,5.26
2023-05-14T01:17:39.727Z,5.26
2023-05-14T01:18:14.706Z,5.26
2023-05-14T01:18:51.265Z,5.26
2023-05-14T01:19:51.723Z,5.26
2023-05-14T01:20:26.485Z,5.26
2023-05-14T01:21:03.621Z,5.27
2023-05-14T01:21:38.567Z,5.26
2023-05-14T01:22:11.938Z,5.27
2023-05-14T01:22:45.134Z,5.28
2023-05-14T01:23:18.355Z,5.29
2023-05-14T01:23:51.727Z,5.29
2023-05-14T01:24:25.009Z,5.29
2023-05-14T01:24:58.259Z,5.29
2023-05-14T01:25:32.295Z,5.30
2023-05-14T01:26:05.549Z,5.29
2023-05-14T01:26:38.678Z,5.30
2023-05-14T01:27:18.688Z,5.29
2023-05-14T01:27:54.770Z,5.31
2023-05-14T01:28:32.898Z,5.31
2023-05-14T01:29:21.807Z,5.32
2023-05-14T01:30:04.199Z,5.32
2023-05-14T01:30:40.520Z,5.33
2023-05-14T01:31:18.868Z,5.34
2023-05-14T01:31:54.497Z,5.34
2023-05-14T01:32:28.589Z,5.35
2023-05-14T01:33:03.984Z,5.35
2023-05-14T01:33:37.472Z,5.35
2023-05-14T01:34:11.940Z,5.36
2023-05-14T01:34:47.626Z,5.37
2023-05-14T01:35:22.748Z,5.37
2023-05-14T01:35:56.496Z,5.37
2023-05-14T01:36:30.083Z,5.37
2023-05-14T01:37:04.460Z,5.37
2023-05-14T01:37:39.089Z,5.37
2023-05-14T01:38:13.970Z,5.37
2023-05-14T01:38:48.314Z,5.37
2023-05-14T01:39:22.445Z,5.36
2023-05-14T01:39:56.746Z,5.35
2023-05-14T01:40:30.817Z,5.36
2023-05-14T01:41:05.420Z,5.35
2023-05-14T01:41:39.557Z,5.36
2023-05-14T01:42:13.441Z,5.36
2023-05-14T01:42:46.791Z,5.36
2023-05-14T01:43:20.355Z,5.35
2023-05-14T01:43:53.694Z,5.36
2023-05-14T01:44:27.022Z,5.37
2023-05-14T01:45:01.017Z,5.37
2023-05-14T01:45:35.580Z,5.37
2023-05-14T01:46:08.881Z,5.39
2023-05-14T01:46:43.326Z,5.39
2023-05-14T01:47:19.608Z,5.40
2023-05-14T01:47:54.449Z,5.41
2023-05-14T01:48:30.977Z,5.41
2023-05-14T01:50:43.773Z,5.46
2023-05-14T01:51:17.235Z,5.45
2023-05-14T01:51:50.475Z,5.47
2023-05-14T01:52:24.016Z,5.49
2023-05-14T01:52:57.399Z,5.51
2023-05-14T01:53:30.739Z,5.53
2023-05-14T01:54:04.200Z,5.55
2023-05-14T01:54:37.531Z,5.57
2023-05-14T01:55:10.961Z,5.58
2023-05-14T01:55:44.331Z,5.61
2023-05-14T01:56:18.835Z,5.63
2023-05-14T01:56:52.400Z,5.64
2023-05-14T01:57:26.205Z,5.64
2023-05-14T01:57:59.659Z,5.67
2023-05-14T01:58:33.482Z,5.68
2023-05-14T01:59:07.156Z,5.69
2023-05-14T01:59:40.484Z,5.70
2023-05-14T02:00:13.973Z,5.71
2023-05-14T02:00:47.389Z,5.73
2023-05-14T02:01:20.821Z,5.74
2023-05-14T02:01:54.280Z,5.75
2023-05-14T02:02:27.632Z,5.76
2023-05-14T02:03:00.910Z,5.76
2023-05-14T02:03:34.524Z,5.77
2023-05-14T02:04:07.829Z,5.78
2023-05-14T02:04:41.156Z,5.80
2023-05-14T02:05:14.578Z,5.82
2023-05-14T02:05:47.865Z,5.81
2023-05-14T02:06:21.195Z,5.82
2023-05-14T02:06:54.925Z,5.83
2023-05-14T02:07:31.023Z,5.83
2023-05-14T02:08:04.593Z,5.83
2023-05-14T02:08:39.026Z,5.82
2023-05-14T02:09:12.277Z,5.82
2023-05-14T02:09:45.720Z,5.82
2023-05-14T02:10:19.094Z,5.82
2023-05-14T02:10:55.882Z,5.82
2023-05-14T02:11:30.948Z,5.81
2023-05-14T02:12:04.403Z,5.83
2023-05-14T02:12:37.652Z,5.82
2023-05-14T02:13:10.960Z,5.82
2023-05-14T02:13:44.623Z,5.84
2023-05-14T02:14:18.122Z,5.83
2023-05-14T02:14:51.538Z,5.84
2023-05-14T02:15:24.922Z,5.84
2023-05-14T02:15:58.298Z,5.85
2023-05-14T02:16:31.833Z,5.85
2023-05-14T02:17:05.466Z,5.86
2023-05-14T02:17:38.975Z,5.85
2023-05-14T02:18:12.725Z,5.86
2023-05-14T02:18:46.205Z,5.86
2023-05-14T02:19:19.606Z,5.89
2023-05-14T02:19:53.433Z,5.85
2023-05-14T02:20:27.427Z,5.83
2023-05-14T02:21:01.154Z,5.81
2023-05-14T02:21:35.123Z,5.78
2023-05-14T02:22:08.438Z,5.80
2023-05-14T02:22:46.398Z,5.80
2023-05-14T02:23:25.593Z,5.79
2023-05-14T02:24:04.822Z,5.76
2023-05-14T02:24:38.592Z,5.75
2023-05-14T02:25:12.655Z,5.74
2023-05-14T02:25:45.899Z,5.75
2023-05-14T02:26:19.223Z,5.74
2023-05-14T02:26:52.660Z,5.74
2023-05-14T02:27:26.091Z,5.75
2023-05-14T02:27:59.538Z,5.75
2023-05-14T02:28:32.881Z,5.76
2023-05-14T02:29:06.240Z,5.76
2023-05-14T02:29:39.905Z,5.77
2023-05-14T02:30:13.554Z,5.80
2023-05-14T02:30:47.073Z,5.78
2023-05-14T02:31:20.501Z,5.76
2023-05-14T02:31:54.024Z,5.75
2023-05-14T02:32:28.603Z,5.74
2023-05-14T02:33:02.389Z,5.73
2023-05-14T02:33:36.180Z,5.74
2023-05-14T02:34:10.186Z,5.73
2023-05-14T02:34:43.568Z,5.74
2023-05-14T02:35:17.062Z,5.75
2023-05-14T02:35:50.753Z,5.74
2023-05-14T02:36:24.423Z,5.74
2023-05-14T02:36:57.722Z,5.76
2023-05-14T02:37:31.152Z,5.76
2023-05-14T02:38:04.606Z,5.76
2023-05-14T02:38:38.026Z,5.76
2023-05-14T02:39:14.504Z,5.76
2023-05-14T02:39:49.247Z,5.75
2023-05-14T02:40:22.948Z,5.76
2023-05-14T02:40:56.667Z,5.77
2023-05-14T02:41:30.043Z,5.78
2023-05-14T02:42:03.854Z,5.79
2023-05-14T02:42:37.241Z,5.79
2023-05-14T02:43:10.553Z,5.80
2023-05-14T02:43:43.948Z,5.80
2023-05-14T02:44:17.312Z,5.81
2023-05-14T02:44:52.474Z,5.81
2023-05-14T02:45:25.875Z,5.81
2023-05-14T02:45:59.266Z,5.81
2023-05-14T02:46:33.062Z,5.82
2023-05-14T02:47:08.492Z,5.82
2023-05-14T02:47:42.439Z,5.83
2023-05-14T02:48:15.883Z,5.84
2023-05-14T02:48:49.210Z,5.84
2023-05-14T02:49:22.630Z,5.83
2023-05-14T02:49:55.971Z,5.85
2023-05-14T02:50:29.789Z,5.84
2023-05-14T02:51:03.465Z,5.85
2023-05-14T02:51:36.750Z,5.85
2023-05-14T02:52:09.997Z,5.84
2023-05-14T02:52:45.887Z,5.83
2023-05-14T02:53:19.220Z,5.85
2023-05-14T02:53:52.695Z,5.85
2023-05-14T02:54:26.036Z,5.85
2023-05-14T02:54:59.357Z,5.84
2023-05-14T02:55:32.722Z,5.83
2023-05-14T02:56:06.283Z,5.85
2023-05-14T02:56:39.612Z,5.84
2023-05-14T02:57:13.003Z,5.83
2023-05-14T02:57:46.910Z,5.84
2023-05-14T02:58:20.188Z,5.82
2023-05-14T02:59:00.880Z,5.81
2023-05-14T02:59:35.003Z,5.80
2023-05-14T03:00:09.440Z,5.78
2023-05-14T03:00:43.730Z,5.77
2023-05-14T03:01:18.988Z,5.77
2023-05-14T03:01:52.931Z,5.75
2023-05-14T03:02:26.973Z,5.74
2023-05-14T03:03:00.913Z,5.72
2023-05-14T03:03:36.666Z,5.72
2023-05-14T03:04:10.379Z,5.73
2023-05-14T03:04:43.780Z,5.72
2023-05-14T03:05:17.129Z,5.72
2023-05-14T03:05:50.938Z,5.70
2023-05-14T03:06:24.254Z,5.68
2023-05-14T03:06:57.641Z,5.63
2023-05-14T03:07:30.965Z,5.61
2023-05-14T03:08:04.318Z,5.60
2023-05-14T03:08:37.556Z,5.55
2023-05-14T03:09:10.962Z,5.52
2023-05-14T03:09:44.331Z,5.51
2023-05-14T03:10:17.892Z,5.47
2023-05-14T03:10:51.232Z,5.45
2023-05-14T03:11:24.578Z,5.44
2023-05-14T03:11:57.984Z,5.44
2023-05-14T03:12:31.332Z,5.44
2023-05-14T03:13:04.620Z,5.44
2023-05-14T03:13:37.942Z,5.45
2023-05-14T03:14:11.382Z,5.45
2023-05-14T03:14:44.666Z,5.45
2023-05-14T03:15:18.027Z,5.46
2023-05-14T03:15:55.177Z,5.46
2023-05-14T03:16:28.829Z,5.45
2023-05-14T03:17:04.458Z,5.45
2023-05-14T03:17:37.820Z,5.46
2023-05-14T03:18:11.094Z,5.46
2023-05-14T03:18:44.612Z,5.46
2023-05-14T03:19:17.987Z,5.46
2023-05-14T03:19:51.430Z,5.47
2023-05-14T03:20:26.246Z,5.48
2023-05-14T03:20:59.653Z,5.48
2023-05-14T03:21:34.338Z,5.49
2023-05-14T03:22:07.601Z,5.50
2023-05-14T03:22:40.999Z,5.50
2023-05-14T03:23:15.297Z,5.51
2023-05-14T03:23:48.634Z,5.53
2023-05-14T03:24:24.690Z,5.53
2023-05-14T03:24:58.140Z,5.54
2023-05-14T03:25:31.469Z,5.55
2023-05-14T03:26:05.240Z,5.56
2023-05-14T03:26:38.490Z,5.58
2023-05-14T03:27:11.761Z,5.59
2023-05-14T03:27:45.120Z,5.60
2023-05-14T03:28:18.482Z,5.61
2023-05-14T03:28:52.051Z,5.61
2023-05-14T03:29:25.538Z,5.62
2023-05-14T03:29:58.910Z,5.63
2023-05-14T03:30:32.363Z,5.63
2023-05-14T03:31:05.956Z,5.65
2023-05-14T03:31:39.506Z,5.67
2023-05-14T03:32:13.159Z,5.67
2023-05-14T03:32:46.820Z,5.69
2023-05-14T03:33:21.476Z,5.70
2023-05-14T03:33:57.641Z,5.72
2023-05-14T03:34:31.068Z,5.72
2023-05-14T03:35:06.106Z,5.73
2023-05-14T03:35:39.469Z,5.75
2023-05-14T03:36:13.277Z,5.76
2023-05-14T03:36:46.690Z,5.77
2023-05-14T03:37:20.287Z,5.77
2023-05-14T03:37:53.626Z,5.77
2023-05-14T03:38:27.035Z,5.77
2023-05-14T03:39:00.530Z,5.77
2023-05-14T03:39:34.379Z,5.77
2023-05-14T03:40:11.002Z,5.77
2023-05-14T03:40:45.634Z,5.80
2023-05-14T03:41:20.288Z,5.78
2023-05-14T03:41:53.803Z,5.74
2023-05-14T03:42:27.314Z,5.72
2023-05-14T03:43:00.670Z,5.70
2023-05-14T03:43:34.010Z,5.70
2023-05-14T03:44:07.317Z,5.68
2023-05-14T03:44:40.883Z,5.68
2023-05-14T03:45:14.336Z,5.68
2023-05-14T03:45:52.709Z,5.68
2023-05-14T03:46:26.108Z,5.64
2023-05-14T03:46:59.593Z,5.64
2023-05-14T03:47:33.150Z,5.64
2023-05-14T03:48:07.137Z,5.64
2023-05-14T03:48:41.254Z,5.62
2023-05-14T03:49:14.599Z,5.62
2023-05-14T03:49:47.867Z,5.61
2023-05-14T03:50:21.249Z,5.64
2023-05-14T03:50:54.585Z,5.63
2023-05-14T03:51:27.942Z,5.62
2023-05-14T03:52:01.180Z,5.59
2023-05-14T03:52:34.484Z,5.61
2023-05-14T03:53:08.943Z,5.57
2023-05-14T03:53:42.848Z,5.54
2023-05-14T03:54:16.121Z,5.50
2023-05-14T03:54:50.775Z,5.48
2023-05-14T03:55:24.028Z,5.51
2023-05-14T03:55:57.339Z,5.49
2023-05-14T03:56:30.555Z,5.51
2023-05-14T03:57:03.982Z,5.51
2023-05-14T03:57:37.344Z,5.51
2023-05-14T03:58:14.507Z,5.52
2023-05-14T03:58:48.070Z,5.56
2023-05-14T03:59:21.365Z,5.56
2023-05-14T03:59:54.637Z,5.53
2023-05-14T04:00:27.862Z,5.53
2023-05-14T04:01:01.238Z,5.52
2023-05-14T04:01:34.753Z,5.53
2023-05-14T04:02:08.090Z,5.54
2023-05-14T04:02:41.495Z,5.56
2023-05-14T04:03:14.992Z,5.57
2023-05-14T04:03:48.395Z,5.59
2023-05-14T04:04:21.804Z,5.60
2023-05-14T04:04:55.166Z,5.63
2023-05-14T04:05:28.307Z,5.65
2023-05-14T04:06:02.212Z,5.67
2023-05-14T04:06:35.555Z,5.66
2023-05-14T04:07:09.212Z,5.66
2023-05-14T04:07:42.430Z,5.67
2023-05-14T04:08:15.654Z,5.68
2023-05-14T04:08:48.957Z,5.69
2023-05-14T04:09:24.762Z,5.71
2023-05-14T04:09:58.150Z,5.72
2023-05-14T04:10:32.384Z,5.74
2023-05-14T04:11:06.736Z,5.74
2023-05-14T04:11:39.985Z,5.77
2023-05-14T04:12:13.211Z,5.75
2023-05-14T04:12:47.096Z,5.74
2023-05-14T04:13:23.667Z,5.75
2023-05-14T04:13:57.340Z,5.74
2023-05-14T04:14:30.700Z,5.77
2023-05-14T04:15:04.405Z,5.82
2023-05-14T04:15:39.561Z,5.83
2023-05-14T04:16:12.864Z,5.80
2023-05-14T04:16:46.321Z,5.80
2023-05-14T04:17:19.626Z,5.79
2023-05-14T04:17:55.021Z,5.80
2023-05-14T04:18:28.409Z,5.81
2023-05-14T04:19:04.230Z,5.80
2023-05-14T04:19:37.669Z,5.80
2023-05-14T04:20:11.249Z,5.81
2023-05-14T04:20:44.568Z,5.81
2023-05-14T04:21:17.912Z,5.81
2023-05-14T04:21:51.278Z,5.83
2023-05-14T04:22:24.609Z,5.84
2023-05-14T04:22:57.939Z,5.85
2023-05-14T04:23:32.128Z,5.87
2023-05-14T04:24:06.516Z,5.88
2023-05-14T04:24:39.770Z,5.88
2023-05-14T04:25:12.998Z,5.88
2023-05-14T04:25:46.379Z,5.90
2023-05-14T04:26:19.683Z,5.91
2023-05-14T04:26:53.060Z,5.91
2023-05-14T04:27:27.432Z,5.92
2023-05-14T04:28:00.838Z,5.93
2023-05-14T04:28:34.147Z,5.94
2023-05-14T04:29:07.425Z,5.94
2023-05-14T04:29:41.538Z,5.97
2023-05-14T04:30:15.022Z,5.98
2023-05-14T04:30:48.974Z,5.98
2023-05-14T04:31:24.977Z,5.99
2023-05-14T04:31:58.487Z,5.99
2023-05-14T04:32:32.026Z,5.98
2023-05-14T04:33:05.604Z,6.02
2023-05-14T04:33:39.465Z,6.03
2023-05-14T04:34:12.708Z,6.04
2023-05-14T04:34:48.081Z,6.06
2023-05-14T04:35:24.112Z,6.08
2023-05-14T04:35:58.264Z,6.10
2023-05-14T04:36:31.929Z,6.11
2023-05-14T04:37:05.617Z,6.12
2023-05-14T04:37:39.425Z,6.13
2023-05-14T04:38:14.377Z,6.16
2023-05-14T04:38:47.823Z,6.18
2023-05-14T04:39:21.109Z,6.20
2023-05-14T04:39:54.490Z,6.21
2023-05-14T04:40:27.849Z,6.23
2023-05-14T04:41:01.199Z,6.25
2023-05-14T04:41:34.610Z,6.27
2023-05-14T04:42:08.133Z,6.30
2023-05-14T04:42:41.446Z,6.32
2023-05-14T04:43:14.984Z,6.33
2023-05-14T04:43:50.970Z,6.35
2023-05-14T04:44:24.263Z,6.36
2023-05-14T04:44:57.961Z,6.37
2023-05-14T04:45:34.338Z,6.39
2023-05-14T04:46:07.869Z,6.41
2023-05-14T04:46:41.188Z,6.41
2023-05-14T04:47:14.468Z,6.43
2023-05-14T04:47:47.829Z,6.42
2023-05-14T04:48:21.266Z,6.46
2023-05-14T04:48:54.590Z,6.48
2023-05-14T04:49:28.002Z,6.48
2023-05-14T04:50:01.314Z,6.51
2023-05-14T04:50:35.388Z,6.54
2023-05-14T04:51:08.818Z,6.54
2023-05-14T04:51:42.095Z,6.57
2023-05-14T04:52:15.437Z,6.59
2023-05-14T04:52:48.747Z,6.61
2023-05-14T04:53:22.253Z,6.62
2023-05-14T04:53:55.728Z,6.64
2023-05-14T04:54:29.285Z,6.65
2023-05-14T04:55:02.649Z,6.67
2023-05-14T04:55:36.309Z,6.69
2023-05-14T04:56:09.587Z,6.70
2023-05-14T04:56:42.887Z,6.73
2023-05-14T04:57:16.675Z,6.74
2023-05-14T04:57:50.121Z,6.76
2023-05-14T04:58:24.318Z,6.75
2023-05-14T04:58:57.604Z,6.79
2023-05-14T04:59:31.442Z,6.80
2023-05-14T05:00:08.154Z,6.83
2023-05-14T05:00:42.008Z,6.86
2023-05-14T05:01:15.619Z,6.86
2023-05-14T05:01:49.023Z,6.88
2023-05-14T05:02:22.427Z,6.89
2023-05-14T05:02:56.092Z,6.90
2023-05-14T05:03:29.521Z,6.92
2023-05-14T05:04:03.159Z,6.94
2023-05-14T05:04:36.877Z,6.98
2023-05-14T05:05:10.412Z,6.98
2023-05-14T05:05:43.739Z,6.98
2023-05-14T05:06:16.979Z,6.99
2023-05-14T05:06:53.259Z,7.00
2023-05-14T05:07:26.569Z,7.02
2023-05-14T05:07:59.916Z,7.05
2023-05-14T05:08:33.402Z,7.06
2023-05-14T05:09:06.881Z,7.06
2023-05-14T05:09:40.584Z,7.09
2023-05-14T05:10:14.020Z,7.12
2023-05-14T05:10:47.604Z,7.12
2023-05-14T05:11:21.698Z,7.16
2023-05-14T05:11:55.060Z,7.17
2023-05-14T05:12:31.185Z,7.19
2023-05-14T05:13:04.513Z,7.22
2023-05-14T05:13:38.060Z,7.23
2023-05-14T05:14:14.407Z,7.25
2023-05-14T05:14:47.874Z,7.26
2023-05-14T05:15:26.510Z,7.28
2023-05-14T05:16:03.476Z,7.30
2023-05-14T05:16:37.197Z,7.31
2023-05-14T05:17:10.666Z,7.35
2023-05-14T05:17:44.052Z,7.39
2023-05-14T05:18:17.408Z,7.44
2023-05-14T05:18:51.204Z,7.44
2023-05-14T05:19:35.866Z,7.47
2023-05-14T05:20:16.310Z,7.46
2023-05-14T05:20:52.332Z,7.48
2023-05-14T05:21:26.088Z,7.54
2023-05-14T05:21:59.477Z,7.56
2023-05-14T05:22:32.760Z,7.59
2023-05-14T05:23:06.052Z,7.66
2023-05-14T05:23:39.571Z,7.64
2023-05-14T05:24:13.542Z,7.60
2023-05-14T05:24:49.135Z,7.60
2023-05-14T05:25:23.100Z,7.59
2023-05-14T05:25:56.386Z,7.60
2023-05-14T05:26:29.605Z,7.65
2023-05-14T05:27:02.896Z,7.68
2023-05-14T05:27:36.308Z,7.69
2023-05-14T05:28:09.625Z,7.72
2023-05-14T05:28:42.898Z,7.73
2023-05-14T05:29:16.283Z,7.76
2023-05-14T05:29:49.610Z,7.78
2023-05-14T05:30:23.273Z,7.81
2023-05-14T05:30:57.113Z,7.84
2023-05-14T05:31:31.216Z,7.87
2023-05-14T05:32:04.926Z,7.90
2023-05-14T05:32:38.306Z,7.92
2023-05-14T05:33:12.721Z,7.95
2023-05-14T05:33:46.067Z,7.98
2023-05-14T05:34:20.289Z,8.00
2023-05-14T05:34:53.621Z,8.05
2023-05-14T05:35:26.874Z,8.09
2023-05-14T05:36:00.515Z,8.12
2023-05-14T05:36:34.008Z,8.14
2023-05-14T05:37:07.368Z,8.18
2023-05-14T05:37:41.700Z,8.20
2023-05-14T05:38:15.876Z,8.23
2023-05-14T05:38:49.149Z,8.25
2023-05-14T05:39:22.460Z,8.27
2023-05-14T05:39:55.784Z,8.29
2023-05-14T05:40:29.210Z,8.31
2023-05-14T05:41:02.415Z,8.34
2023-05-14T05:41:35.749Z,8.38
2023-05-14T05:42:09.396Z,8.41
2023-05-14T05:42:42.767Z,8.45
2023-05-14T05:43:16.337Z,8.49
2023-05-14T05:43:49.763Z,8.52
2023-05-14T05:44:23.512Z,8.55
2023-05-14T05:44:56.930Z,8.57
2023-05-14T05:45:30.330Z,8.55
2023-05-14T05:46:03.612Z,8.62
2023-05-14T05:46:37.334Z,8.67
2023-05-14T05:47:10.646Z,8.69
2023-05-14T05:47:44.251Z,8.74
2023-05-14T05:48:17.797Z,8.77
2023-05-14T05:48:51.137Z,8.83
2023-05-14T05:49:24.479Z,8.85
2023-05-14T05:49:58.077Z,8.92
2023-05-14T05:50:38.095Z,8.92
2023-05-14T05:51:13.150Z,8.91
2023-05-14T05:51:46.755Z,8.97
2023-05-14T05:52:20.332Z,9.02
2023-05-14T05:52:54.315Z,9.05
2023-05-14T05:53:27.798Z,9.13
2023-05-14T05:54:01.294Z,9.19
2023-05-14T05:54:35.107Z,9.19
2023-05-14T05:55:09.469Z,9.22
2023-05-14T05:55:42.984Z,9.26
2023-05-14T05:56:16.735Z,9.29
2023-05-14T05:56:52.636Z,9.28
2023-05-14T05:57:27.491Z,9.32
2023-05-14T05:58:01.021Z,9.36
2023-05-14T05:58:34.592Z,9.34
2023-05-14T05:59:08.312Z,9.41
2023-05-14T05:59:41.626Z,9.44
2023-05-14T06:00:15.504Z,9.47
2023-05-14T06:00:48.917Z,9.51
2023-05-14T06:01:22.703Z,9.53
2023-05-14T06:01:56.015Z,9.56
2023-05-14T06:02:29.300Z,9.62
2023-05-14T06:03:02.893Z,9.61
2023-05-14T06:03:36.621Z,9.67
2023-05-14T06:04:10.443Z,9.72
2023-05-14T06:04:43.742Z,9.72
2023-05-14T06:05:17.028Z,9.74
2023-05-14T06:05:50.394Z,9.78
2023-05-14T06:06:23.709Z,9.83
2023-05-14T06:06:57.009Z,9.85
2023-05-14T06:07:31.185Z,9.89
2023-05-14T06:08:04.785Z,9.93
2023-05-14T06:08:38.115Z,9.95
2023-05-14T06:09:14.464Z,9.94
2023-05-14T06:09:49.531Z,10.01
2023-05-14T06:10:23.078Z,10.02
2023-05-14T06:10:56.539Z,10.04
2023-05-14T06:11:29.899Z,10.07
2023-05-14T06:12:03.462Z,10.09
2023-05-14T06:12:37.000Z,10.13
2023-05-14T06:13:10.252Z,10.16
2023-05-14T06:13:43.885Z,10.20
2023-05-14T06:14:17.375Z,10.24
2023-05-14T06:14:55.774Z,10.29
2023-05-14T06:15:29.096Z,10.32
2023-05-14T06:16:02.954Z,10.36
2023-05-14T06:16:36.695Z,10.41
2023-05-14T06:17:12.166Z,10.44
2023-05-14T06:17:46.081Z,10.49
2023-05-14T06:18:19.424Z,10.53
2023-05-14T06:18:52.994Z,10.57
2023-05-14T06:19:26.385Z,10.63
2023-05-14T06:19:59.704Z,10.68
2023-05-14T06:20:33.002Z,10.75
2023-05-14T06:21:06.741Z,10.84
2023-05-14T06:21:40.377Z,10.96
2023-05-14T06:22:15.155Z,11.05
2023-05-14T06:22:48.828Z,11.15
2023-05-14T06:23:24.795Z,11.27
2023-05-14T06:23:58.292Z,11.35
2023-05-14T06:24:31.693Z,11.46
2023-05-14T06:25:07.781Z,11.59
2023-05-14T06:25:41.165Z,11.71
2023-05-14T06:26:14.424Z,11.81
2023-05-14T06:26:48.996Z,11.90
2023-05-14T06:27:22.352Z,11.99
2023-05-14T06:27:55.587Z,12.10
2023-05-14T06:28:28.832Z,12.19
2023-05-14T06:29:02.161Z,12.28
2023-05-14T06:29:36.068Z,12.38
2023-05-14T06:30:11.420Z,12.49
2023-05-14T06:30:45.016Z,12.64
2023-05-14T06:31:19.170Z,12.77
2023-05-14T06:31:52.682Z,12.88
2023-05-14T06:32:26.064Z,12.99
2023-05-14T06:32:59.389Z,13.14
2023-05-14T06:33:32.730Z,13.22
2023-05-14T06:34:06.032Z,13.31
2023-05-14T06:34:39.360Z,13.43
2023-05-14T06:35:12.640Z,13.58
2023-05-14T06:35:46.267Z,13.72
2023-05-14T06:36:19.469Z,13.85
2023-05-14T06:36:52.904Z,13.99
2023-05-14T06:37:26.284Z,14.11
2023-05-14T06:37:59.617Z,14.25
2023-05-14T06:38:33.336Z,14.32
2023-05-14T06:39:06.808Z,14.39
2023-05-14T06:39:40.850Z,14.41
2023-05-14T06:40:16.060Z,14.41
2023-05-14T06:40:49.621Z,14.41
2023-05-14T06:41:23.164Z,14.44
2023-05-14T06:41:56.625Z,14.47
2023-05-14T06:42:30.358Z,14.45
2023-05-14T06:43:06.894Z,14.46
2023-05-14T06:43:40.297Z,14.48
2023-05-14T06:44:13.830Z,14.50
2023-05-14T06:44:47.352Z,14.52
2023-05-14T06:45:20.835Z,14.53
2023-05-14T06:45:56.052Z,14.52
2023-05-14T06:46:29.639Z,14.52
2023-05-14T06:47:03.256Z,14.50
2023-05-14T06:47:37.172Z,14.50
2023-05-14T06:48:10.827Z,14.50
2023-05-14T06:48:44.397Z,14.50
2023-05-14T06:49:18.384Z,14.56
2023-05-14T06:49:51.841Z,14.60
2023-05-14T06:50:25.692Z,14.62
2023-05-14T06:50:59.520Z,14.57
2023-05-14T06:51:33.108Z,14.59
2023-05-14T06:52:07.160Z,14.62
2023-05-14T06:52:40.721Z,14.64
2023-05-14T06:53:14.491Z,14.68
2023-05-14T06:53:49.042Z,14.75
2023-05-14T06:54:22.729Z,14.79
2023-05-14T06:55:09.298Z,14.82
2023-05-14T06:55:43.309Z,14.88
2023-05-14T06:56:17.880Z,14.89
2023-05-14T06:56:51.546Z,14.91
2023-05-14T06:57:25.352Z,14.93
2023-05-14T06:57:58.755Z,14.97
2023-05-14T06:58:32.050Z,15.01
2023-05-14T06:59:05.264Z,15.00
2023-05-14T06:59:38.709Z,15.00
2023-05-14T07:00:12.845Z,15.00
2023-05-14T07:00:46.350Z,14.97
2023-05-14T07:01:19.919Z,14.95
2023-05-14T07:01:53.675Z,15.01
2023-05-14T07:02:27.560Z,15.04
2023-05-14T07:03:01.350Z,15.05
2023-05-14T07:03:35.018Z,15.02
2023-05-14T07:04:09.236Z,15.02
2023-05-14T07:04:43.261Z,15.00
2023-05-14T07:05:17.033Z,15.04
2023-05-14T07:05:50.617Z,15.01
2023-05-14T07:06:24.147Z,15.05
2023-05-14T07:06:57.546Z,15.08
2023-05-14T07:07:31.127Z,15.10
2023-05-14T07:08:04.623Z,15.01
2023-05-14T07:08:37.966Z,15.04
2023-05-14T07:09:12.251Z,15.05
2023-05-14T07:09:45.624Z,15.02
2023-05-14T07:10:19.126Z,15.08
2023-05-14T07:10:52.632Z,15.10
2023-05-14T07:11:26.360Z,15.11
2023-05-14T07:11:59.850Z,15.13
2023-05-14T07:12:33.259Z,15.14
2023-05-14T07:13:06.610Z,15.17
2023-05-14T07:13:41.142Z,15.19
2023-05-14T07:14:14.428Z,15.20
2023-05-14T07:14:48.192Z,15.19
2023-05-14T07:15:21.770Z,15.21
2023-05-14T07:15:57.884Z,15.15
2023-05-14T07:16:31.438Z,15.11
2023-05-14T07:17:05.199Z,15.16
2023-05-14T07:17:38.687Z,15.17
2023-05-14T07:18:12.019Z,15.17
2023-05-14T07:18:46.028Z,15.23
2023-05-14T07:19:19.535Z,15.21
2023-05-14T07:19:52.952Z,15.19
2023-05-14T07:20:26.514Z,15.07
2023-05-14T07:20:59.934Z,15.10
2023-05-14T07:21:33.377Z,15.12
2023-05-14T07:22:06.744Z,15.14
2023-05-14T07:22:40.217Z,15.21
2023-05-14T07:23:13.685Z,15.27
2023-05-14T07:23:46.991Z,15.28
2023-05-14T07:24:20.336Z,15.24
2023-05-14T07:24:56.077Z,15.22
2023-05-14T07:25:29.416Z,15.24
2023-05-14T07:26:03.254Z,15.25
2023-05-14T07:26:36.774Z,15.30
2023-05-14T07:27:10.090Z,15.29
2023-05-14T07:27:43.555Z,15.28
2023-05-14T07:28:16.928Z,15.31
2023-05-14T07:28:50.454Z,15.34
2023-05-14T07:29:25.500Z,15.42
2023-05-14T07:29:58.882Z,15.45
2023-05-14T07:30:34.403Z,15.51
2023-05-14T07:31:09.218Z,15.59
2023-05-14T07:31:42.757Z,15.70
2023-05-14T07:32:16.122Z,15.75
2023-05-14T07:32:49.592Z,15.76
2023-05-14T07:33:23.329Z,15.82